Time;durP1;ratioP1;P1;durP2;ratioP2;P2;SDS_P1;SDS_P2;PMS_P1;PMS_P2;Temp;Humidity;BMP_temperature;BMP_pressure;BME280_temperature;BME280_humidity;BME280_pressure;Samples;Min_cycle;Max_cycle;Signal;HPM_P1;HPM_P2
2022/12/26 00:02:01;;;;;;;;;25.75;23.00;;;;;9.48;89.13;100911.69;5069713;28;10874;-67
2022/12/26 00:04:29;;;;;;;;;38.25;35.75;;;;;9.45;88.93;100906.72;5062434;28;10774;-68
2022/12/26 00:07:16;;;;;;;;;30.25;30.00;;;;;9.40;88.74;100910.81;5065931;28;10955;-67
2022/12/26 00:09:42;;;;;;;;;32.50;24.00;;;;;9.37;88.95;100918.38;5058133;28;10865;-69
2022/12/26 00:12:09;;;;;;;;;29.50;27.25;;;;;9.37;89.38;100921.91;5063519;28;11022;-68
2022/12/26 00:14:35;;;;;;;;;24.00;20.75;;;;;9.40;89.13;100924.22;5069825;28;10793;-68
2022/12/26 00:17:02;;;;;;;;;35.75;27.25;;;;;9.39;88.94;100919.84;5057642;28;10649;-69
2022/12/26 00:19:28;;;;;;;;;29.75;27.00;;;;;9.39;88.85;100914.47;5068600;28;10564;-68
2022/12/26 00:21:56;;;;;;;;;34.25;26.00;;;;;9.37;88.59;100911.16;5057622;28;10852;-68
2022/12/26 00:24:22;;;;;;;;;29.00;26.75;;;;;9.39;88.73;100919.84;5069748;28;10661;-68
2022/12/26 00:26:49;;;;;;;;;24.50;24.00;;;;;9.41;88.96;100917.84;5056366;28;10840;-67
2022/12/26 00:29:16;;;;;;;;;22.75;21.50;;;;;9.44;88.96;100927.38;5068942;28;10466;-66
2022/12/26 00:31:42;;;;;;;;;34.50;29.25;;;;;9.41;89.05;100928.59;5070165;28;11227;-69
2022/12/26 00:34:09;;;;;;;;;32.25;26.75;;;;;9.42;89.07;100940.16;5061365;28;10874;-68
2022/12/26 00:36:36;;;;;;;;;26.00;23.00;;;;;9.44;89.12;100939.97;5051151;28;10645;-67
2022/12/26 00:39:03;;;;;;;;;24.50;20.25;;;;;9.45;88.74;100941.66;5064615;28;10536;-67
2022/12/26 00:41:30;;;;;;;;;24.50;23.25;;;;;9.46;89.00;100938.78;5062139;28;10468;-68
2022/12/26 00:43:57;;;;;;;;;32.75;25.25;;;;;9.44;89.07;100937.28;5064692;28;10605;-67
2022/12/26 00:46:25;;;;;;;;;27.75;25.00;;;;;9.37;89.11;100948.78;5068280;28;11539;-69
2022/12/26 00:48:51;;;;;;;;;26.00;22.75;;;;;9.40;88.93;100937.66;5060168;28;10488;-68
2022/12/26 00:51:18;;;;;;;;;27.25;23.25;;;;;9.43;89.22;100944.50;5065169;28;10621;-68
2022/12/26 00:53:45;;;;;;;;;25.75;25.25;;;;;9.37;89.22;100935.34;5063847;28;11620;-67
2022/12/26 00:56:11;;;;;;;;;22.00;22.00;;;;;9.41;89.33;100936.66;5059706;28;10560;-69
2022/12/26 00:58:39;;;;;;;;;24.00;22.50;;;;;9.43;89.04;100938.31;5066013;28;11392;-65
2022/12/26 01:01:13;;;;;;;;;26.50;21.75;;;;;9.45;89.07;100936.28;5052555;28;10477;-67
2022/12/26 01:03:42;;;;;;;;;23.50;22.75;;;;;9.44;89.23;100926.53;5059048;28;10484;-69
2022/12/26 01:06:08;;;;;;;;;28.00;25.00;;;;;9.38;89.13;100926.25;5062127;28;10630;-68
2022/12/26 01:08:35;;;;;;;;;27.75;23.00;;;;;9.41;89.01;100911.63;5067871;28;10789;-68
2022/12/26 01:11:06;;;;;;;;;26.00;24.00;;;;;9.39;89.18;100911.78;5062319;28;11371;-67
2022/12/26 01:13:34;;;;;;;;;22.00;17.75;;;;;9.43;88.93;100924.88;5065013;28;10563;-67
2022/12/26 01:16:01;;;;;;;;;28.50;18.75;;;;;9.45;89.39;100918.31;5067308;28;10531;-67
2022/12/26 01:18:28;;;;;;;;;26.50;23.00;;;;;9.48;89.06;100917.06;5067838;28;10672;-68
2022/12/26 01:21:06;;;;;;;;;28.25;26.75;;;;;9.43;89.23;100917.63;5063591;28;10490;-67
2022/12/26 01:23:32;;;;;;;;;37.00;31.75;;;;;9.39;89.38;100924.41;5060672;28;10694;-67
2022/12/26 01:25:59;;;;;;;;;24.00;24.00;;;;;9.39;89.57;100925.22;5065145;28;11005;-67
2022/12/26 01:28:50;;;;;;;;;20.75;19.25;;;;;9.45;89.36;100926.38;5057513;28;10728;-67
2022/12/26 01:31:18;;;;;;;;;23.00;19.50;;;;;9.48;89.07;100927.81;5060343;28;10546;-67
2022/12/26 01:33:45;;;;;;;;;32.75;21.50;;;;;9.48;88.92;100930.50;5060605;28;10396;-67
2022/12/26 01:36:12;;;;;;;;;30.25;24.25;;;;;9.46;89.21;100941.47;5056874;28;10571;-67
2022/12/26 01:38:38;;;;;;;;;26.00;23.50;;;;;9.43;88.96;100933.75;5055005;28;10455;-67
2022/12/26 01:41:18;;;;;;;;;26.75;23.00;;;;;9.40;89.02;100942.22;5063060;28;10584;-66
2022/12/26 01:43:58;;;;;;;;;26.50;23.25;;;;;9.40;89.07;100936.84;5068067;28;10394;-67
2022/12/26 01:46:34;;;;;;;;;32.75;27.75;;;;;9.38;89.00;100942.38;5063359;28;10644;-67
2022/12/26 01:49:07;;;;;;;;;23.75;21.75;;;;;9.40;89.03;100931.47;5070017;28;10664;-67
2022/12/26 01:51:37;;;;;;;;;31.50;27.25;;;;;9.38;89.28;100933.47;5071645;28;10407;-67
2022/12/26 01:54:08;;;;;;;;;26.00;23.00;;;;;9.33;89.40;100928.66;5067618;28;10647;-67
2022/12/26 01:56:56;;;;;;;;;33.75;26.75;;;;;9.34;89.48;100934.88;5072721;28;10659;-67
2022/12/26 01:59:27;;;;;;;;;31.50;27.75;;;;;9.32;89.60;100931.56;5067604;28;10558;-67
2022/12/26 02:01:54;;;;;;;;;31.00;24.75;;;;;9.32;89.34;100944.97;5064741;28;10768;-68
2022/12/26 02:07:16;;;;;;;;;30.75;24.00;;;;;9.27;89.79;100936.63;5057368;28;10649;-68
2022/12/26 02:09:43;;;;;;;;;24.75;20.00;;;;;9.30;89.48;100938.94;5067889;28;11509;-66
2022/12/26 02:12:23;;;;;;;;;28.75;27.00;;;;;9.33;89.17;100935.91;5059040;28;10566;-67
2022/12/26 02:15:09;;;;;;;;;27.50;27.50;;;;;9.34;89.29;100929.50;5054915;28;10779;-66
2022/12/26 02:17:37;;;;;;;;;31.50;26.25;;;;;9.30;89.29;100925.50;5057206;28;10764;-67
2022/12/26 02:20:12;;;;;;;;;29.75;28.00;;;;;9.30;89.49;100915.59;5057465;28;10705;-67
2022/12/26 02:22:56;;;;;;;;;27.00;23.00;;;;;9.30;89.11;100910.22;5066790;28;10720;-66
2022/12/26 02:25:26;;;;;;;;;28.25;24.50;;;;;9.30;89.33;100904.84;5063250;28;10695;-67
2022/12/26 02:28:06;;;;;;;;;24.75;20.75;;;;;9.31;89.43;100908.38;5067685;28;10524;-67
2022/12/26 02:30:43;;;;;;;;;21.75;20.25;;;;;9.27;89.41;100918.66;5071100;28;10687;-67
2022/12/26 02:33:16;;;;;;;;;28.75;25.00;;;;;9.27;89.16;100913.28;5064466;28;10560;-67
2022/12/26 02:35:53;;;;;;;;;25.50;21.25;;;;;9.20;89.05;100904.31;5065568;28;10696;-67
2022/12/26 02:38:20;;;;;;;;;30.50;20.75;;;;;9.20;89.41;100909.69;5060917;28;11387;-67
2022/12/26 02:41:03;;;;;;;;;31.00;23.75;;;;;9.15;89.15;100906.69;5061910;28;10708;-67
2022/12/26 02:43:50;;;;;;;;;27.50;25.25;;;;;9.16;89.42;100908.38;5061760;28;10744;-67
2022/12/26 02:49:22;;;;;;;;;32.00;28.25;;;;;9.16;89.35;100905.69;5069974;28;10775;-65
2022/12/26 03:17:18;;;;;;;;;32.50;29.50;;;;;8.98;88.68;100916.75;5019952;28;11759;-67
2022/12/26 03:18:27;;;;;;;;;34.50;29.75;;;;;8.93;89.21;100916.47;5062773;28;11051;-67
2022/12/26 03:21:19;;;;;;;;;32.25;25.25;;;;;8.90;88.93;100928.41;5060013;28;11628;-67
2022/12/26 03:23:47;;;;;;;;;28.25;24.75;;;;;8.83;88.56;100922.09;5066812;28;10905;-67
2022/12/26 03:26:40;;;;;;;;;27.75;26.50;;;;;8.81;89.18;100926.81;5056774;28;10809;-67
2022/12/26 03:31:56;;;;;;;;;30.25;24.25;;;;;8.89;88.99;100902.56;5065756;28;10631;-66
2022/12/26 03:34:23;;;;;;;;;29.00;28.25;;;;;8.85;88.71;100911.19;5068298;28;10876;-67
2022/12/26 03:36:56;;;;;;;;;28.00;24.75;;;;;8.83;88.75;100906.00;5069874;28;11684;-67
2022/12/26 04:19:22;;;;;;;;;34.25;28.75;;;;;8.82;88.93;100908.84;5071475;28;10968;-67
2022/12/26 04:44:11;;;;;;;;;20.25;20.00;;;;;8.79;88.78;100922.63;5061758;28;10743;-66
2022/12/26 04:46:40;;;;;;;;;24.25;19.25;;;;;8.76;88.49;100923.00;5069701;28;10780;-66
2022/12/26 04:51:56;;;;;;;;;21.00;18.00;;;;;8.63;88.95;100912.88;5052617;28;11154;-68
2022/12/26 04:54:23;;;;;;;;;21.00;20.00;;;;;8.53;88.88;100902.38;5062338;28;10643;-67
2022/12/26 04:56:50;;;;;;;;;20.00;18.50;;;;;8.56;88.62;100885.91;5057644;28;10841;-66
2022/12/26 04:59:18;;;;;;;;;22.25;22.00;;;;;8.62;89.23;100895.09;5061445;28;10781;-67
2022/12/26 05:10:28;;;;;;;;;19.25;16.25;;;;;8.56;88.60;100891.28;5053142;28;11369;-68
2022/12/26 05:12:55;;;;;;;;;18.75;17.75;;;;;8.55;88.58;100884.25;5061154;28;10910;-67
2022/12/26 05:15:21;;;;;;;;;18.75;16.00;;;;;8.58;88.47;100885.72;5050097;28;10790;-67
2022/12/26 05:28:55;;;;;;;;;12.25;12.25;;;;;8.53;88.33;100898.84;5061507;28;10557;-65
2022/12/26 05:31:21;;;;;;;;;13.50;13.00;;;;;8.51;88.48;100898.22;5060138;28;10643;-66
2022/12/26 05:34:07;;;;;;;;;8.75;8.75;;;;;8.50;88.42;100904.56;5064308;28;10464;-65
2022/12/26 05:36:40;;;;;;;;;16.50;11.00;;;;;8.48;88.46;100901.25;5061745;28;10491;-65
2022/12/26 05:39:08;;;;;;;;;7.00;5.25;;;;;8.53;88.41;100905.06;5065650;28;10453;-65
2022/12/26 05:41:35;;;;;;;;;11.25;9.00;;;;;8.55;88.06;100897.69;5059760;28;10522;-66
2022/12/26 05:44:02;;;;;;;;;19.50;14.50;;;;;8.54;88.01;100898.66;5061165;28;10551;-64
2022/12/26 05:46:29;;;;;;;;;11.25;8.75;;;;;8.56;88.21;100893.97;5063811;28;11307;-65
2022/12/26 05:48:56;;;;;;;;;11.00;7.75;;;;;8.57;87.96;100894.81;5069169;28;10626;-66
2022/12/26 05:51:22;;;;;;;;;7.00;7.00;;;;;8.58;87.81;100901.81;5060602;28;10472;-65
2022/12/26 05:53:50;;;;;;;;;14.25;13.25;;;;;8.50;87.42;100907.25;5062921;28;10296;-66
2022/12/26 05:56:18;;;;;;;;;8.50;8.50;;;;;8.44;87.67;100924.09;5060747;28;10574;-65
2022/12/26 05:58:45;;;;;;;;;10.75;9.25;;;;;8.52;88.25;100910.59;5064351;28;10574;-67
2022/12/26 06:01:13;;;;;;;;;12.25;10.50;;;;;8.45;87.50;100904.28;5060741;28;10515;-67
2022/12/26 06:03:42;;;;;;;;;14.00;10.00;;;;;8.52;87.85;100897.19;5066559;28;10454;-66
2022/12/26 06:06:09;;;;;;;;;13.75;10.50;;;;;8.48;87.76;100893.19;5069430;28;10513;-66
2022/12/26 06:08:37;;;;;;;;;10.50;8.00;;;;;8.51;87.77;100898.22;5062214;28;10398;-66
2022/12/26 06:11:05;;;;;;;;;11.75;7.75;;;;;8.57;87.45;100898.31;5054384;28;11160;-67
2022/12/26 06:13:33;;;;;;;;;6.75;6.75;;;;;8.59;87.16;100903.53;5063701;28;10535;-65
2022/12/26 06:16:07;;;;;;;;;6.50;6.50;;;;;8.60;87.47;100903.34;5069952;28;10359;-67
2022/12/26 06:18:34;;;;;;;;;5.25;5.25;;;;;8.56;87.02;100896.66;5066866;28;10442;-66
2022/12/26 06:21:13;;;;;;;;;6.75;5.50;;;;;8.56;86.76;100901.19;5057253;28;10367;-64
2022/12/26 06:23:40;;;;;;;;;3.50;3.50;;;;;8.59;87.19;100914.25;5057479;28;10292;-65
2022/12/26 06:26:08;;;;;;;;;4.75;4.00;;;;;8.56;86.70;100904.69;5063162;28;10328;-64
2022/12/26 06:28:36;;;;;;;;;5.00;5.00;;;;;8.53;87.03;100923.00;5066709;28;10293;-64
2022/12/26 06:31:13;;;;;;;;;9.00;7.00;;;;;8.53;87.58;100913.09;5068759;28;10376;-64
2022/12/26 06:33:39;;;;;;;;;4.25;4.00;;;;;8.56;87.44;100910.06;5066191;28;10138;-64
2022/12/26 06:36:10;;;;;;;;;7.50;7.50;;;;;8.51;87.44;100915.16;5071353;28;10295;-66
2022/12/26 06:38:36;;;;;;;;;5.50;4.75;;;;;8.53;87.25;100905.06;5060211;28;11195;-65
2022/12/26 06:41:04;;;;;;;;;8.00;6.50;;;;;8.55;87.38;100896.84;5059967;28;10229;-66
2022/12/26 06:43:31;;;;;;;;;6.00;5.50;;;;;8.55;86.81;100900.34;5068024;28;10139;-67
2022/12/26 06:45:59;;;;;;;;;6.25;5.00;;;;;8.54;86.93;100900.50;5061063;28;10226;-66
2022/12/26 06:48:26;;;;;;;;;7.00;4.25;;;;;8.54;87.16;100889.78;5065162;28;10501;-63
2022/12/26 06:50:55;;;;;;;;;5.75;4.75;;;;;8.59;87.15;100887.41;5065882;28;10367;-64
2022/12/26 06:53:24;;;;;;;;;8.00;6.00;;;;;8.59;87.52;100890.09;5064835;28;10248;-63
2022/12/26 06:55:51;;;;;;;;;9.00;8.00;;;;;8.53;87.07;100880.06;5060441;28;10285;-64
2022/12/26 06:58:17;;;;;;;;;6.00;6.00;;;;;8.58;87.45;100891.09;5065915;28;11196;-65
2022/12/26 07:00:44;;;;;;;;;6.00;6.00;;;;;8.62;87.84;100887.03;5071938;28;10280;-66
2022/12/26 07:03:10;;;;;;;;;2.25;2.25;;;;;8.67;86.58;100882.00;5069120;28;10287;-67
2022/12/26 07:05:38;;;;;;;;;8.00;5.50;;;;;8.60;87.71;100886.41;5063838;28;10318;-67
2022/12/26 07:08:04;;;;;;;;;5.00;5.00;;;;;8.61;87.66;100885.38;5057191;28;10218;-66
2022/12/26 07:10:34;;;;;;;;;9.00;9.00;;;;;8.52;87.58;100889.16;5065995;28;10382;-67
2022/12/26 07:13:01;;;;;;;;;10.75;8.25;;;;;8.55;87.65;100884.25;5070463;28;10442;-66
2022/12/26 07:15:28;;;;;;;;;9.25;8.00;;;;;8.59;87.34;100882.88;5065117;28;10510;-66
2022/12/26 07:17:54;;;;;;;;;5.00;5.00;;;;;8.65;87.47;100884.00;5070594;28;10470;-65
2022/12/26 07:20:21;;;;;;;;;6.00;6.00;;;;;8.65;87.80;100878.63;5066665;28;10212;-66
2022/12/26 07:22:47;;;;;;;;;7.00;7.00;;;;;8.70;87.51;100873.56;5069853;28;11022;-65
2022/12/26 07:25:14;;;;;;;;;8.25;7.25;;;;;8.70;86.74;100881.59;5054648;28;10309;-66
2022/12/26 07:27:40;;;;;;;;;7.00;7.00;;;;;8.68;86.96;100875.59;5069728;28;10375;-64
2022/12/26 07:30:07;;;;;;;;;11.00;7.25;;;;;8.61;87.56;100885.38;5068763;28;10275;-66
2022/12/26 07:32:34;;;;;;;;;6.00;6.00;;;;;8.59;87.23;100888.25;5066315;28;10388;-64
2022/12/26 07:35:00;;;;;;;;;7.00;6.75;;;;;8.61;87.32;100890.75;5059230;28;10367;-66
2022/12/26 07:37:27;;;;;;;;;9.25;8.25;;;;;8.54;87.91;100887.09;5068044;28;10132;-66
2022/12/26 07:39:53;;;;;;;;;6.00;6.00;;;;;8.55;88.18;100883.44;5068267;28;10373;-66
2022/12/26 07:42:24;;;;;;;;;6.00;6.00;;;;;8.63;88.04;100894.09;5066070;28;10274;-66
2022/12/26 07:44:51;;;;;;;;;6.00;6.00;;;;;8.60;87.63;100891.75;5067893;28;10364;-66
2022/12/26 07:47:17;;;;;;;;;7.50;5.50;;;;;8.56;87.72;100885.91;5069659;28;10377;-67
2022/12/26 07:49:44;;;;;;;;;11.75;7.50;;;;;8.59;87.95;100895.47;5066090;28;10561;-67
2022/12/26 07:52:10;;;;;;;;;5.00;5.00;;;;;8.61;88.42;100885.38;5060707;28;10404;-66
2022/12/26 07:54:36;;;;;;;;;10.00;5.00;;;;;8.68;87.92;100889.00;5064891;28;10411;-67
2022/12/26 07:57:03;;;;;;;;;8.00;7.00;;;;;8.69;87.42;100890.69;5062572;28;10382;-67
2022/12/26 07:59:49;;;;;;;;;5.75;5.75;;;;;8.77;87.51;100892.47;5060319;28;10468;-67
2022/12/26 08:02:20;;;;;;;;;9.25;9.00;;;;;8.74;87.93;100890.13;5069956;28;10352;-67
2022/12/26 08:04:47;;;;;;;;;5.50;5.50;;;;;8.73;87.88;100901.88;5069010;28;10495;-67
2022/12/26 08:07:14;;;;;;;;;5.00;5.00;;;;;8.75;87.57;100905.22;5068698;28;10293;-66
2022/12/26 08:09:41;;;;;;;;;5.50;5.50;;;;;8.77;87.59;100911.25;5068083;28;10216;-66
2022/12/26 08:12:08;;;;;;;;;6.50;6.00;;;;;8.72;88.49;100914.47;5068336;28;10209;-67
2022/12/26 08:14:38;;;;;;;;;10.75;9.50;;;;;8.77;88.32;100933.53;5060027;28;10215;-67
2022/12/26 08:17:05;;;;;;;;;8.00;6.00;;;;;8.80;88.26;100940.41;5066893;28;11122;-66
2022/12/26 08:19:31;;;;;;;;;8.00;8.00;;;;;8.77;88.24;100938.91;5060363;28;10190;-66
2022/12/26 08:21:58;;;;;;;;;5.00;5.00;;;;;8.80;88.86;100957.34;5061577;28;10361;-67
2022/12/26 08:24:24;;;;;;;;;7.25;7.00;;;;;8.82;88.20;100957.16;5058373;28;10211;-68
2022/12/26 08:26:51;;;;;;;;;6.00;6.00;;;;;8.82;88.56;100963.34;5070755;28;11001;-67
2022/12/26 08:29:17;;;;;;;;;7.25;6.00;;;;;8.84;88.27;100980.13;5063194;28;10212;-65
2022/12/26 08:31:43;;;;;;;;;6.00;5.00;;;;;8.82;88.07;100974.09;5064057;28;10273;-69
2022/12/26 08:34:12;;;;;;;;;3.50;3.50;;;;;8.84;88.56;100976.63;5063008;28;10126;-66
2022/12/26 08:36:38;;;;;;;;;6.25;6.00;;;;;8.84;88.88;100973.94;5060769;28;10132;-66
2022/12/26 08:39:05;;;;;;;;;7.00;6.00;;;;;8.87;88.72;100978.91;5065553;28;10182;-69
2022/12/26 08:41:31;;;;;;;;;4.75;3.75;;;;;8.91;88.55;100988.28;5069652;28;10346;-65
2022/12/26 08:43:58;;;;;;;;;9.00;4.50;;;;;8.85;88.25;100989.03;5065180;28;10309;-67
2022/12/26 08:46:44;;;;;;;;;2.50;2.50;;;;;8.87;88.43;100997.72;5053827;28;10187;-67
2022/12/26 08:49:11;;;;;;;;;4.50;3.00;;;;;8.83;88.15;101010.69;5060246;28;10004;-67
2022/12/26 08:51:38;;;;;;;;;2.00;2.00;;;;;8.83;88.05;101007.13;5061303;28;10171;-65
2022/12/26 08:54:05;;;;;;;;;2.75;1.50;;;;;8.81;88.50;101018.06;5064033;28;10103;-66
2022/12/26 08:56:31;;;;;;;;;0.50;0.50;;;;;8.80;88.44;101029.00;5057032;28;9987;-67
2022/12/26 08:58:58;;;;;;;;;4.00;4.00;;;;;8.80;88.10;101045.94;5068270;28;10070;-66
2022/12/26 09:01:27;;;;;;;;;2.50;1.00;;;;;8.80;87.60;101053.97;5064789;28;10154;-65
2022/12/26 09:03:56;;;;;;;;;1.00;1.00;;;;;8.71;87.75;101067.59;5061848;28;9930;-66
2022/12/26 09:06:23;;;;;;;;;1.50;1.50;;;;;8.54;86.52;101078.44;5067807;28;10098;-66
2022/12/26 09:08:50;;;;;;;;;2.00;2.00;;;;;8.40;86.20;101080.00;5064402;28;10177;-67
2022/12/26 09:11:25;;;;;;;;;0.00;0.00;;;;;8.29;85.47;101098.28;5063646;28;10007;-66
2022/12/26 09:13:54;;;;;;;;;0.75;0.75;;;;;8.19;85.44;101111.91;5062316;28;9903;-66
2022/12/26 09:16:24;;;;;;;;;1.50;1.00;;;;;8.16;84.34;101123.81;5063797;28;9890;-67
2022/12/26 09:19:00;;;;;;;;;3.50;1.00;;;;;8.13;84.20;101128.66;5063481;28;9987;-67
2022/12/26 09:21:27;;;;;;;;;1.00;1.00;;;;;8.12;83.68;101135.06;5060380;28;10067;-69
2022/12/26 09:23:58;;;;;;;;;2.00;2.00;;;;;8.10;83.54;101150.47;5064288;28;10187;-68
2022/12/26 09:26:27;;;;;;;;;1.00;1.00;;;;;7.98;83.33;101158.03;5063024;28;10211;-67
2022/12/26 09:28:53;;;;;;;;;2.00;1.50;;;;;7.95;83.05;101171.78;5059982;28;10208;-68
2022/12/26 09:31:25;;;;;;;;;2.00;2.00;;;;;7.91;82.93;101179.31;5066497;28;10297;-69
2022/12/26 09:33:52;;;;;;;;;5.00;2.50;;;;;7.81;81.83;101175.13;5064706;28;10297;-68
2022/12/26 09:36:21;;;;;;;;;1.50;1.00;;;;;7.80;82.10;101179.66;5060240;28;10300;-67
2022/12/26 09:38:49;;;;;;;;;1.00;0.00;;;;;7.81;82.09;101184.00;5054238;28;10290;-68
2022/12/26 09:41:31;;;;;;;;;0.00;0.00;;;;;7.78;81.20;101192.41;5054399;28;10143;-63
2022/12/26 09:44:20;;;;;;;;;2.00;1.00;;;;;7.82;81.25;101207.13;5057985;28;10225;-64
2022/12/26 09:47:24;;;;;;;;;2.00;1.00;;;;;7.85;81.61;101208.63;5059707;28;10873;-65
2022/12/26 09:50:00;;;;;;;;;1.00;1.00;;;;;7.85;81.24;101211.31;5064420;28;10541;-65
2022/12/26 09:52:53;;;;;;;;;4.75;2.00;;;;;7.87;81.71;101218.19;5060251;28;10357;-65
2022/12/26 09:55:34;;;;;;;;;0.00;0.00;;;;;7.82;80.33;101215.16;5063385;28;10354;-67
2022/12/26 09:58:16;;;;;;;;;1.00;0.00;;;;;7.82;80.21;101215.16;5065926;28;11062;-66
2022/12/26 10:01:19;;;;;;;;;0.75;0.00;;;;;7.84;80.50;101223.03;5055744;28;10315;-66
2022/12/26 10:03:49;;;;;;;;;3.50;0.00;;;;;7.86;79.78;101229.91;5066142;28;10866;-66
2022/12/26 10:06:18;;;;;;;;;1.00;1.00;;;;;7.92;79.74;101234.59;5065772;28;10215;-66
2022/12/26 10:08:58;;;;;;;;;0.00;0.00;;;;;7.95;79.91;101238.78;5069176;28;10210;-66
2022/12/26 10:11:45;;;;;;;;;0.00;0.00;;;;;7.99;79.83;101234.78;5065807;28;10287;-66
2022/12/26 10:14:38;;;;;;;;;0.00;0.00;;;;;7.98;78.79;101242.97;5068821;28;10399;-66
2022/12/26 10:17:20;;;;;;;;;0.00;0.00;;;;;7.92;79.12;101253.34;5063573;28;10363;-66
2022/12/26 10:20:06;;;;;;;;;0.00;0.00;;;;;7.98;78.76;101256.38;5056912;28;11088;-68
2022/12/26 10:22:55;;;;;;;;;0.00;0.00;;;;;7.99;79.12;101261.56;5064813;28;10226;-65
2022/12/26 10:25:27;;;;;;;;;0.00;0.00;;;;;8.02;78.13;101263.06;5058198;28;10116;-67
2022/12/26 10:28:02;;;;;;;;;0.75;0.00;;;;;8.08;78.02;101262.41;5057969;28;10353;-67
2022/12/26 10:30:40;;;;;;;;;0.25;0.00;;;;;8.09;78.46;101278.31;5058910;28;10253;-67
2022/12/26 10:33:32;;;;;;;;;0.00;0.00;;;;;8.14;78.57;101276.00;5065874;28;10271;-67
2022/12/26 10:35:58;;;;;;;;;0.00;0.00;;;;;8.16;78.73;101287.38;5057968;28;10232;-68
2022/12/26 10:38:40;;;;;;;;;0.75;0.00;;;;;8.26;78.44;101284.53;5081020;28;10912;-67
2022/12/26 10:41:17;;;;;;;;;0.00;0.00;;;;;8.23;77.73;101287.56;5067356;28;9951;-65
2022/12/26 10:43:44;;;;;;;;;0.00;0.00;;;;;8.21;77.68;101275.31;5057695;28;10220;-67
2022/12/26 10:46:34;;;;;;;;;0.00;0.00;;;;;8.18;76.94;101290.75;5056783;28;10902;-68
2022/12/26 10:49:01;;;;;;;;;0.00;0.00;;;;;8.17;77.37;101290.91;5063284;28;10122;-67
2022/12/26 10:51:27;;;;;;;;;0.00;0.00;;;;;8.18;77.02;101293.44;5056520;28;10052;-66
2022/12/26 10:53:54;;;;;;;;;0.00;0.00;;;;;8.25;76.95;101304.31;5060344;28;10016;-66
2022/12/26 10:56:24;;;;;;;;;0.00;0.00;;;;;8.15;76.60;101303.66;5057710;28;10058;-67
2022/12/26 10:59:02;;;;;;;;;3.50;0.00;;;;;8.22;76.29;101301.94;5062057;28;11025;-69
2022/12/26 11:01:31;;;;;;;;;0.00;0.00;;;;;8.23;76.40;101302.81;5065076;28;10088;-67
2022/12/26 11:04:01;;;;;;;;;0.50;0.00;;;;;8.19;76.47;101307.66;5067624;28;10159;-66
2022/12/26 11:06:32;;;;;;;;;0.00;0.00;;;;;8.13;75.88;101311.84;5053634;28;10274;-68
2022/12/26 11:08:59;;;;;;;;;4.25;0.00;;;;;8.16;76.02;101318.72;5065733;28;10968;-68
2022/12/26 11:11:46;;;;;;;;;0.00;0.00;;;;;8.15;76.19;101315.22;5063118;28;10183;-68
2022/12/26 11:14:38;;;;;;;;;3.00;0.00;;;;;8.10;76.80;101322.06;5067980;28;10120;-67
2022/12/26 11:17:12;;;;;;;;;0.00;0.00;;;;;8.12;76.36;101331.63;5060545;28;10175;-66
2022/12/26 11:19:41;;;;;;;;;1.00;0.00;;;;;8.10;76.51;101339.00;5073328;28;10315;-66
2022/12/26 11:22:26;;;;;;;;;0.00;0.00;;;;;8.18;77.28;101348.88;5061836;28;10205;-65
2022/12/26 11:25:17;;;;;;;;;0.00;0.00;;;;;8.21;76.58;101351.22;5056222;28;10132;-68
2022/12/26 11:27:47;;;;;;;;;0.00;0.00;;;;;8.17;76.26;101358.78;5057388;28;10171;-65
2022/12/26 11:30:27;;;;;;;;;0.00;0.00;;;;;8.19;77.20;101353.25;5057168;28;10270;-64
2022/12/26 11:33:10;;;;;;;;;1.00;1.00;;;;;8.27;76.72;101357.81;5060260;28;10225;-66
2022/12/26 11:36:17;;;;;;;;;0.00;0.00;;;;;8.31;76.67;101370.72;5071117;28;10132;-64
2022/12/26 11:39:06;;;;;;;;;1.50;0.00;;;;;8.29;76.36;101363.81;5058504;28;10790;-65
2022/12/26 11:41:41;;;;;;;;;1.00;1.00;;;;;8.24;76.18;101364.31;5064100;28;10351;-65
2022/12/26 11:44:11;;;;;;;;;0.00;0.00;;;;;8.18;75.31;101365.84;5060368;28;10289;-65
2022/12/26 11:46:48;;;;;;;;;1.50;0.00;;;;;8.19;74.97;101372.03;5061541;28;10032;-66
2022/12/26 11:49:40;;;;;;;;;0.00;0.00;;;;;8.19;74.69;101382.75;5059064;28;10235;-66
2022/12/26 11:52:44;;;;;;;;;1.00;0.00;;;;;8.30;75.25;101377.06;5061874;28;10183;-65
2022/12/26 11:55:26;;;;;;;;;0.00;0.00;;;;;8.42;75.06;101389.16;5068980;28;10125;-64
2022/12/26 11:58:05;;;;;;;;;1.00;1.00;;;;;8.36;73.51;101379.09;5063233;28;10059;-65
2022/12/26 12:00:40;;;;;;;;;1.25;0.75;;;;;8.40;73.57;101372.41;5062127;28;10052;-66
2022/12/26 12:03:16;;;;;;;;;0.00;0.00;;;;;8.37;73.08;101390.69;5066986;28;10176;-66
2022/12/26 12:06:06;;;;;;;;;0.00;0.00;;;;;8.34;72.54;101397.19;5069651;28;10047;-66
2022/12/26 12:08:32;;;;;;;;;0.00;0.00;;;;;8.25;72.59;101387.44;5057528;28;10073;-65
2022/12/26 12:11:26;;;;;;;;;3.00;1.00;;;;;8.15;71.36;101406.38;5062219;28;10079;-66
2022/12/26 12:14:18;;;;;;;;;2.50;0.00;;;;;8.14;71.57;101404.72;5064839;28;10143;-64
2022/12/26 12:17:09;;;;;;;;;2.00;0.75;;;;;8.17;71.21;101417.78;5047282;28;10063;-65
2022/12/26 12:20:06;;;;;;;;;1.00;1.00;;;;;8.22;71.72;101409.22;5067466;28;10317;-65
2022/12/26 12:23:17;;;;;;;;;1.00;1.00;;;;;8.16;70.56;101415.25;5058696;28;10145;-64
2022/12/26 12:26:02;;;;;;;;;0.00;0.00;;;;;8.20;70.61;101419.28;5050925;28;10096;-64
2022/12/26 12:29:04;;;;;;;;;0.00;0.00;;;;;8.21;68.50;101426.31;5060278;28;9975;-64
2022/12/26 12:31:49;;;;;;;;;0.50;0.50;;;;;8.27;68.73;101424.84;5062710;28;10038;-65
2022/12/26 12:34:44;;;;;;;;;0.00;0.00;;;;;8.08;66.72;101428.66;5064808;28;10161;-66
2022/12/26 12:37:31;;;;;;;;;0.00;0.00;;;;;8.14;67.39;101422.63;5055999;28;10189;-65
2022/12/26 12:40:16;;;;;;;;;0.50;0.00;;;;;8.04;66.19;101422.78;5056631;28;10146;-65
2022/12/26 12:42:56;;;;;;;;;3.00;0.75;;;;;7.88;65.04;101423.56;5060011;28;10097;-65
2022/12/26 12:45:31;;;;;;;;;0.00;0.00;;;;;7.84;66.75;101432.09;5069977;28;10218;-66
2022/12/26 12:48:16;;;;;;;;;0.00;0.00;;;;;7.83;66.13;101435.78;5058170;28;10287;-66
2022/12/26 12:51:05;;;;;;;;;0.50;0.00;;;;;7.72;66.03;101442.25;5066845;28;10311;-65
2022/12/26 12:53:44;;;;;;;;;0.50;0.00;;;;;7.68;66.99;101443.56;5060074;28;10338;-65
2022/12/26 12:56:31;;;;;;;;;0.00;0.00;;;;;7.68;66.55;101439.06;5069538;28;10186;-65
2022/12/26 12:59:42;;;;;;;;;0.00;0.00;;;;;7.66;66.48;101448.28;5061533;28;10320;-65
2022/12/26 13:02:19;;;;;;;;;0.75;0.75;;;;;7.67;67.21;101449.94;5060455;28;10460;-68
2022/12/26 13:04:54;;;;;;;;;1.25;1.00;;;;;7.72;67.35;101457.50;5069438;28;10176;-67
2022/12/26 13:07:27;;;;;;;;;2.00;2.00;;;;;7.75;68.37;101462.53;5060926;28;11397;-65
2022/12/26 13:10:00;;;;;;;;;1.00;1.00;;;;;7.72;67.70;101462.84;5060942;28;10292;-66
2022/12/26 13:12:33;;;;;;;;;0.00;0.00;;;;;7.77;67.94;101452.50;5067994;28;11113;-66
2022/12/26 13:15:24;;;;;;;;;1.75;1.50;;;;;7.80;67.71;101468.25;5064650;28;10438;-66
2022/12/26 13:17:58;;;;;;;;;1.00;1.00;;;;;7.79;66.50;101469.25;5061623;28;10353;-64
2022/12/26 13:20:53;;;;;;;;;1.25;0.75;;;;;7.61;65.63;101464.81;5070178;28;10340;-64
2022/12/26 13:26:20;;;;;;;;;0.00;0.00;;;;;7.57;65.35;101473.31;5072512;28;10352;-66
2022/12/26 13:29:13;;;;;;;;;2.75;0.00;;;;;7.63;65.62;101476.22;5068045;28;10289;-66
2022/12/26 13:31:40;;;;;;;;;1.00;1.00;;;;;7.57;63.97;101479.53;5068765;28;10313;-66
2022/12/26 13:34:15;;;;;;;;;0.00;0.00;;;;;7.57;65.18;101473.31;5071368;28;10349;-66
2022/12/26 13:36:44;;;;;;;;;2.00;0.00;;;;;7.58;64.90;101485.75;5073398;28;10377;-67
2022/12/26 13:39:10;;;;;;;;;0.00;0.00;;;;;7.58;64.83;101481.22;5069863;28;10280;-66
2022/12/26 13:43:53;;;;;;;;;1.00;1.00;;;;;7.52;64.82;101489.88;5067929;28;10400;-66
2022/12/26 13:44:40;;;;;;;;;1.00;0.00;;;;;7.52;64.34;101497.91;5066616;28;10357;-65
2022/12/26 13:47:31;;;;;;;;;1.00;1.00;;;;;7.54;65.16;101498.63;5073275;28;10416;-65
2022/12/26 13:50:36;;;;;;;;;0.00;0.00;;;;;7.60;65.30;101497.97;5067435;28;10335;-65
2022/12/26 13:53:24;;;;;;;;;0.00;0.00;;;;;7.65;65.16;101506.34;5067597;28;10424;-66
2022/12/26 13:55:51;;;;;;;;;1.50;0.00;;;;;7.64;65.46;101503.84;5062039;28;11378;-64
2022/12/26 13:58:48;;;;;;;;;0.00;0.00;;;;;7.58;65.51;101502.66;5068116;28;10373;-65
2022/12/26 14:01:31;;;;;;;;;0.00;0.00;;;;;7.59;66.00;101507.00;5064104;28;10441;-64